Time;durP1;ratioP1;P1;durP2;ratioP2;P2;SDS_P1;SDS_P2;PMS_P1;PMS_P2;Temp;Humidity;BMP_temperature;BMP_pressure;BME280_temperature;BME280_humidity;BME280_pressure;Samples;Min_cycle;Max_cycle;Signal;HPM_P1;HPM_P2
2023/06/20 00:01:20;;;;;;;15.53;6.67;;;18.00;99.90;;;;;;5116685;27;20058;-73
2023/06/20 00:03:46;;;;;;;11.17;6.33;;;18.00;99.90;;;;;;5135208;27;20126;-72
2023/06/20 00:06:11;;;;;;;13.03;6.63;;;18.00;99.90;;;;;;5135174;27;20051;-73
2023/06/20 00:08:37;;;;;;;12.73;6.43;;;18.00;99.90;;;;;;5134908;27;20058;-73
2023/06/20 00:11:03;;;;;;;13.10;6.60;;;18.10;99.90;;;;;;5135177;27;20455;-73
2023/06/20 00:13:29;;;;;;;12.60;6.60;;;18.10;99.90;;;;;;5134735;27;20046;-74
2023/06/20 00:15:57;;;;;;;12.07;6.60;;;18.10;99.90;;;;;;5116661;27;20062;-73
2023/06/20 00:18:24;;;;;;;12.63;7.18;;;18.00;99.90;;;;;;5134503;27;20118;-73
2023/06/20 00:20:53;;;;;;;12.95;7.30;;;18.10;99.90;;;;;;5116572;27;20463;-73
2023/06/20 00:23:20;;;;;;;16.15;7.22;;;18.10;99.90;;;;;;5116468;27;20158;-72
2023/06/20 00:25:46;;;;;;;14.65;7.10;;;18.20;99.90;;;;;;5134393;27;20072;-73
2023/06/20 00:28:16;;;;;;;11.83;6.70;;;18.10;99.90;;;;;;5134841;27;20522;-72
2023/06/20 00:30:41;;;;;;;11.15;6.53;;;18.20;99.90;;;;;;5134504;27;20051;-73
2023/06/20 00:33:07;;;;;;;14.47;6.63;;;18.20;99.90;;;;;;5134367;27;20039;-74
2023/06/20 00:35:33;;;;;;;15.70;7.23;;;18.20;99.90;;;;;;5133979;27;20055;-73
2023/06/20 00:38:00;;;;;;;12.90;6.70;;;18.20;99.90;;;;;;5134901;27;20043;-73
2023/06/20 00:40:27;;;;;;;15.20;6.97;;;18.20;99.90;;;;;;5134255;27;20086;-72
2023/06/20 00:42:53;;;;;;;15.25;7.13;;;18.10;99.90;;;;;;5120041;27;20069;-72
2023/06/20 00:45:32;;;;;;;13.73;7.30;;;18.10;99.90;;;;;;5113516;28;20079;-73
2023/06/20 00:48:00;;;;;;;13.68;7.15;;;18.10;99.90;;;;;;5113564;28;20035;-72
2023/06/20 00:50:28;;;;;;;13.20;7.80;;;18.00;99.90;;;;;;5095881;28;20047;-74
2023/06/20 00:53:00;;;;;;;12.52;7.15;;;18.00;99.90;;;;;;5096059;28;20040;-73
2023/06/20 00:55:28;;;;;;;12.25;6.95;;;18.00;99.90;;;;;;5113489;28;20046;-73
2023/06/20 00:57:58;;;;;;;12.27;6.65;;;18.00;99.90;;;;;;5101751;27;20041;-74
2023/06/20 01:00:29;;;;;;;13.98;7.07;;;18.00;99.90;;;;;;5133934;27;20135;-73
2023/06/20 01:03:01;;;;;;;13.98;7.45;;;18.00;99.90;;;;;;5115814;27;20050;-73
2023/06/20 01:05:30;;;;;;;14.93;7.43;;;18.00;99.90;;;;;;5115582;27;20096;-73
2023/06/20 01:08:28;;;;;;;14.00;7.53;;;18.00;99.90;;;;;;5116111;27;20128;-73
2023/06/20 01:10:56;;;;;;;12.95;7.47;;;18.00;99.90;;;;;;5133917;27;20398;-72
2023/06/20 01:13:43;;;;;;;14.48;8.05;;;18.00;99.90;;;;;;5134075;27;20039;-72
2023/06/20 01:16:11;;;;;;;;;;;17.90;99.90;;;;;;5133683;27;20074;-73
2023/06/20 01:18:44;;;;;;;16.58;7.82;;;18.00;99.90;;;;;;5133487;27;19927;-72
2023/06/20 01:21:15;;;;;;;14.63;7.82;;;18.00;99.90;;;;;;5116011;28;20043;-73
2023/06/20 01:24:06;;;;;;;12.38;7.55;;;18.00;99.90;;;;;;5133899;27;20096;-73
2023/06/20 01:27:02;;;;;;;16.17;7.85;;;18.00;99.90;;;;;;5133073;27;20393;-72
2023/06/20 01:29:32;;;;;;;13.80;7.43;;;18.00;99.90;;;;;;5133347;27;20046;-73
2023/06/20 01:32:03;;;;;;;15.32;7.35;;;18.00;99.90;;;;;;5133803;27;20176;-72
2023/06/20 01:34:30;;;;;;;15.80;8.32;;;18.00;99.90;;;;;;5098737;28;20043;-74
2023/06/20 01:36:59;;;;;;;12.70;8.20;;;18.10;99.90;;;;;;5134109;28;20050;-72
2023/06/20 01:39:43;;;;;;;15.73;8.32;;;18.10;99.90;;;;;;5115716;28;20039;-72
2023/06/20 01:42:10;;;;;;;15.48;8.25;;;18.10;99.90;;;;;;5116516;28;20269;-73
2023/06/20 01:44:38;;;;;;;15.65;7.85;;;18.10;99.90;;;;;;5094689;28;20087;-73
2023/06/20 01:47:06;;;;;;;14.07;8.05;;;18.10;99.90;;;;;;5095394;28;20055;-73
2023/06/20 01:49:33;;;;;;;13.10;8.43;;;18.00;99.90;;;;;;5124556;28;20051;-72
2023/06/20 01:52:00;;;;;;;;;;;18.10;99.90;;;;;;5134245;28;20053;-73
2023/06/20 01:54:29;;;;;;;14.00;8.50;;;18.10;99.90;;;;;;5133509;28;19923;-74
2023/06/20 01:56:59;;;;;;;14.70;8.38;;;18.00;99.90;;;;;;5083653;27;20047;-73
2023/06/20 01:59:26;;;;;;;14.63;8.52;;;18.10;99.90;;;;;;5138108;27;20051;-73
2023/06/20 02:01:55;;;;;;;16.98;9.18;;;18.00;99.90;;;;;;5136891;27;20059;-73
2023/06/20 02:04:22;;;;;;;14.88;8.52;;;18.00;99.90;;;;;;5137451;27;20144;-72
2023/06/20 02:06:50;;;;;;;17.80;9.25;;;18.00;99.90;;;;;;5137149;27;20051;-72
2023/06/20 02:09:17;;;;;;;16.20;9.10;;;18.00;99.90;;;;;;5119028;27;20039;-73
2023/06/20 02:11:45;;;;;;;15.02;8.52;;;18.00;99.90;;;;;;5137212;27;20111;-73
2023/06/20 02:14:12;;;;;;;14.25;8.95;;;17.90;99.90;;;;;;5136094;27;20086;-74
2023/06/20 02:16:39;;;;;;;15.55;9.45;;;18.00;99.90;;;;;;5137220;27;20047;-74
2023/06/20 02:19:07;;;;;;;14.07;8.73;;;18.00;99.90;;;;;;5137809;27;20043;-72
2023/06/20 02:21:40;;;;;;;19.10;9.48;;;18.00;99.90;;;;;;5137772;27;20160;-72
2023/06/20 02:24:07;;;;;;;15.77;10.25;;;18.00;99.90;;;;;;5119609;27;20129;-73
2023/06/20 02:26:38;;;;;;;16.00;10.23;;;18.00;99.90;;;;;;5119655;27;20439;-73
2023/06/20 02:29:07;;;;;;;16.38;10.23;;;18.00;99.90;;;;;;5137737;27;20414;-74
2023/06/20 02:31:36;;;;;;;19.55;10.20;;;18.00;99.90;;;;;;5137390;27;20043;-74
2023/06/20 02:34:09;;;;;;;17.85;10.52;;;17.90;99.90;;;;;;5118188;27;20418;-75
2023/06/20 02:36:36;;;;;;;19.95;10.75;;;17.90;99.90;;;;;;5136433;27;20047;-74
2023/06/20 02:39:04;;;;;;;20.23;11.55;;;17.90;99.90;;;;;;5136734;27;20050;-72
2023/06/20 02:41:30;;;;;;;19.98;11.70;;;17.90;99.90;;;;;;5125476;27;20075;-73
2023/06/20 02:43:56;;;;;;;22.90;11.50;;;17.90;99.90;;;;;;5115933;28;20453;-73
2023/06/20 02:46:46;;;;;;;18.90;11.17;;;17.90;99.90;;;;;;5081561;28;20388;-73
2023/06/20 02:49:31;;;;;;;18.65;11.70;;;18.00;99.90;;;;;;5098270;28;20463;-72
2023/06/20 02:52:12;;;;;;;20.15;11.85;;;18.00;99.90;;;;;;5115585;27;20058;-72
2023/06/20 02:54:52;;;;;;;19.48;12.00;;;18.00;99.90;;;;;;5119681;27;20398;-72
2023/06/20 02:57:20;;;;;;;25.42;12.35;;;18.00;99.90;;;;;;5136359;27;20051;-73
2023/06/20 02:59:58;;;;;;;21.30;12.77;;;18.00;99.90;;;;;;5135785;27;20055;-72
2023/06/20 03:02:29;;;;;;;20.65;12.40;;;18.00;99.90;;;;;;5136725;27;20059;-72
2023/06/20 03:05:00;;;;;;;21.92;12.27;;;18.00;99.90;;;;;;5117642;27;20394;-72
2023/06/20 03:07:28;;;;;;;19.45;12.52;;;18.10;99.90;;;;;;5117592;27;20078;-74
2023/06/20 03:09:55;;;;;;;21.95;12.40;;;18.00;99.90;;;;;;5117467;27;20043;-74
2023/06/20 03:12:22;;;;;;;20.63;12.88;;;18.00;99.90;;;;;;5118165;27;20050;-72
2023/06/20 03:14:48;;;;;;;19.77;11.75;;;18.00;99.90;;;;;;5117509;27;20096;-73
2023/06/20 03:17:14;;;;;;;22.17;12.53;;;18.00;99.90;;;;;;5136093;27;20051;-74
2023/06/20 03:19:39;;;;;;;20.43;12.23;;;18.00;99.90;;;;;;5117808;27;20131;-73
2023/06/20 03:22:05;;;;;;;20.63;12.37;;;18.10;99.90;;;;;;5100452;27;20047;-74
2023/06/20 03:24:31;;;;;;;21.10;12.43;;;18.00;99.90;;;;;;5136076;27;20116;-73
2023/06/20 03:26:56;;;;;;;19.57;11.33;;;18.00;99.90;;;;;;5100427;27;20043;-72
2023/06/20 03:29:22;;;;;;;21.00;12.60;;;18.00;99.90;;;;;;5100029;27;20368;-73
2023/06/20 03:31:48;;;;;;;20.07;12.10;;;18.00;99.90;;;;;;5115360;27;20050;-73
2023/06/20 03:34:14;;;;;;;22.55;11.80;;;18.00;99.90;;;;;;5134545;27;20054;-73
2023/06/20 03:36:40;;;;;;;22.55;12.18;;;18.00;99.90;;;;;;5116464;27;20043;-73
2023/06/20 03:39:05;;;;;;;24.30;12.75;;;18.00;99.90;;;;;;5135575;27;20111;-72
2023/06/20 03:41:31;;;;;;;21.10;12.33;;;18.00;99.90;;;;;;5097754;28;20044;-72
2023/06/20 03:43:57;;;;;;;23.23;12.17;;;18.00;99.90;;;;;;5080083;28;20070;-73
2023/06/20 03:46:22;;;;;;;22.70;12.27;;;18.00;99.90;;;;;;5115058;28;20470;-72
2023/06/20 03:48:48;;;;;;;19.83;12.13;;;18.00;99.90;;;;;;5093798;27;20519;-73
2023/06/20 03:51:14;;;;;;;21.70;12.20;;;18.00;99.90;;;;;;5135413;27;20043;-73
2023/06/20 03:53:39;;;;;;;18.27;11.63;;;18.00;99.90;;;;;;5135309;27;20039;-73
2023/06/20 03:56:05;;;;;;;21.80;12.67;;;18.00;99.90;;;;;;5082949;27;20575;-74
2023/06/20 03:58:31;;;;;;;21.27;11.80;;;18.00;99.90;;;;;;5117068;27;20050;-73
2023/06/20 04:00:56;;;;;;;20.40;12.57;;;18.00;99.90;;;;;;5134659;27;20055;-74
2023/06/20 04:03:22;;;;;;;23.57;11.83;;;18.00;99.90;;;;;;5135303;27;20087;-74
2023/06/20 04:05:48;;;;;;;22.20;12.43;;;18.00;99.90;;;;;;5116075;27;20092;-73
2023/06/20 04:08:13;;;;;;;20.93;12.20;;;18.00;99.90;;;;;;5116919;27;20043;-72
2023/06/20 04:10:39;;;;;;;20.50;11.40;;;18.00;99.90;;;;;;5083323;27;20130;-72
2023/06/20 04:13:05;;;;;;;20.00;12.43;;;18.00;99.90;;;;;;5116385;27;20039;-72
2023/06/20 04:15:31;;;;;;;19.30;11.90;;;18.00;99.90;;;;;;5083088;27;20515;-72
2023/06/20 04:17:56;;;;;;;20.03;11.50;;;18.10;99.90;;;;;;5134445;27;20133;-72
2023/06/20 04:20:22;;;;;;;21.17;12.17;;;18.10;99.90;;;;;;5134169;27;20097;-71
2023/06/20 04:22:48;;;;;;;19.77;11.63;;;18.10;99.90;;;;;;5134626;27;20051;-72
2023/06/20 04:25:15;;;;;;;20.63;11.77;;;18.20;99.90;;;;;;5116315;27;20043;-72
2023/06/20 04:27:41;;;;;;;19.80;11.80;;;18.30;99.90;;;;;;5134796;27;20042;-72
2023/06/20 04:30:07;;;;;;;18.85;11.65;;;18.30;99.90;;;;;;5134268;27;20039;-72
2023/06/20 04:32:34;;;;;;;19.60;12.10;;;18.30;99.90;;;;;;5099705;27;20050;-72
2023/06/20 04:35:00;;;;;;;21.27;12.32;;;18.40;99.90;;;;;;5134209;27;20050;-72
2023/06/20 04:37:29;;;;;;;22.67;12.23;;;18.40;99.90;;;;;;5134574;27;20047;-72
2023/06/20 04:39:57;;;;;;;20.70;11.38;;;18.50;99.90;;;;;;5115817;27;20042;-72
2023/06/20 04:42:23;;;;;;;17.92;11.60;;;18.60;99.90;;;;;;5116389;27;20054;-71
2023/06/20 04:44:48;;;;;;;18.97;11.73;;;18.60;99.90;;;;;;5116266;27;20043;-72
2023/06/20 04:47:14;;;;;;;20.87;11.47;;;18.70;99.90;;;;;;5115884;27;20372;-72
2023/06/20 04:49:40;;;;;;;17.13;11.77;;;18.70;99.90;;;;;;5116319;27;20050;-73
2023/06/20 04:52:07;;;;;;;19.50;12.13;;;18.80;99.90;;;;;;5115950;27;20050;-74
2023/06/20 04:54:32;;;;;;;17.70;11.23;;;18.80;99.90;;;;;;5134584;27;20108;-72
2023/06/20 04:56:59;;;;;;;18.33;11.20;;;18.90;99.90;;;;;;5133819;27;20078;-75
2023/06/20 04:59:26;;;;;;;18.52;11.63;;;18.90;99.90;;;;;;5099524;27;20082;-72
2023/06/20 05:01:52;;;;;;;;;;;19.00;99.90;;;;;;5101428;27;20055;-72
2023/06/20 05:04:18;;;;;;;23.57;11.87;;;19.00;99.90;;;;;;5155203;27;19948;-71
2023/06/20 05:06:46;;;;;;;19.60;11.55;;;19.10;99.90;;;;;;5156821;27;20027;-72
2023/06/20 05:09:12;;;;;;;19.90;12.45;;;19.10;99.90;;;;;;5155926;27;20086;-72
2023/06/20 05:11:38;;;;;;;24.77;12.02;;;19.10;99.90;;;;;;5138182;27;20073;-71
2023/06/20 05:14:03;;;;;;;23.90;12.50;;;19.20;99.90;;;;;;5152289;27;20039;-72
2023/06/20 05:16:29;;;;;;;23.73;12.57;;;19.30;99.90;;;;;;5139890;27;20091;-73
2023/06/20 05:18:55;;;;;;;21.63;12.70;;;19.30;99.90;;;;;;5133785;27;20096;-71
2023/06/20 05:21:21;;;;;;;21.70;12.77;;;19.40;99.90;;;;;;5115200;27;20497;-71
2023/06/20 05:23:46;;;;;;;21.50;12.93;;;19.40;99.90;;;;;;5115046;27;20042;-73
2023/06/20 05:26:12;;;;;;;21.73;12.77;;;19.50;99.90;;;;;;5116090;28;20083;-72
2023/06/20 05:28:38;;;;;;;20.70;11.83;;;19.60;99.90;;;;;;5116695;27;20047;-73
2023/06/20 05:31:04;;;;;;;20.37;12.73;;;19.60;99.90;;;;;;5118655;27;20039;-71
2023/06/20 05:33:30;;;;;;;18.20;11.87;;;19.70;99.90;;;;;;5141711;27;20071;-72
2023/06/20 05:35:57;;;;;;;19.67;12.10;;;19.80;99.90;;;;;;5104540;28;20078;-72
2023/06/20 05:38:23;;;;;;;18.83;12.02;;;19.90;99.90;;;;;;5136469;28;20050;-71
2023/06/20 05:40:48;;;;;;;18.23;11.77;;;19.90;99.90;;;;;;5118285;28;20452;-74
2023/06/20 05:43:14;;;;;;;18.80;11.97;;;19.90;99.90;;;;;;5127753;28;20054;-72
2023/06/20 05:45:40;;;;;;;19.07;11.80;;;19.90;99.90;;;;;;5139490;27;20039;-72
2023/06/20 05:48:08;;;;;;;20.07;12.20;;;19.90;99.90;;;;;;5138010;28;20530;-73
2023/06/20 05:50:35;;;;;;;19.90;11.88;;;19.90;99.90;;;;;;5122757;28;20027;-72
2023/06/20 05:53:01;;;;;;;;;;;19.90;99.90;;;;;;5121893;28;20035;-75
2023/06/20 05:55:27;;;;;;;19.27;11.30;;;19.90;99.90;;;;;;5134165;28;19982;-74
2023/06/20 05:57:52;;;;;;;20.67;12.30;;;20.00;99.90;;;;;;5133986;28;20489;-73
2023/06/20 06:00:18;;;;;;;16.27;11.17;;;20.00;99.90;;;;;;5114932;28;20517;-73
2023/06/20 06:02:45;;;;;;;18.57;12.13;;;20.10;99.90;;;;;;5133554;28;20046;-72
2023/06/20 06:05:11;;;;;;;20.48;11.45;;;20.10;99.90;;;;;;5097870;28;20050;-73
2023/06/20 06:07:38;;;;;;;16.35;11.43;;;20.20;99.90;;;;;;5133587;28;20112;-72
2023/06/20 06:10:08;;;;;;;18.63;11.90;;;20.20;99.90;;;;;;5113854;28;20105;-74
2023/06/20 06:12:37;;;;;;;18.42;12.38;;;20.20;99.90;;;;;;5095065;28;20087;-74
2023/06/20 06:15:09;;;;;;;20.88;12.30;;;20.30;99.90;;;;;;5094379;28;20040;-72
2023/06/20 06:17:35;;;;;;;14.93;11.20;;;20.30;99.90;;;;;;5112577;28;20051;-72
2023/06/20 06:20:01;;;;;;;19.00;11.87;;;20.40;99.90;;;;;;5112774;28;20088;-72
2023/06/20 06:22:26;;;;;;;17.30;11.70;;;20.40;99.90;;;;;;5096942;28;20055;-72
2023/06/20 06:24:52;;;;;;;18.10;11.77;;;20.40;99.90;;;;;;5133295;28;20051;-72
2023/06/20 06:27:18;;;;;;;19.27;12.20;;;20.50;99.90;;;;;;5114506;28;20541;-72
2023/06/20 06:29:44;;;;;;;20.50;12.17;;;20.50;99.90;;;;;;5097973;28;20051;-72
2023/06/20 06:32:11;;;;;;;17.23;11.98;;;20.60;99.90;;;;;;5114580;28;20059;-72
2023/06/20 06:34:37;;;;;;;15.77;11.25;;;20.70;99.90;;;;;;5115354;28;20123;-71
2023/06/20 06:37:04;;;;;;;17.73;11.52;;;20.70;99.90;;;;;;5114844;28;20521;-72
2023/06/20 06:39:30;;;;;;;19.48;12.18;;;20.80;99.90;;;;;;5132584;28;20046;-73
2023/06/20 06:41:56;;;;;;;17.63;11.40;;;20.90;99.90;;;;;;5115355;27;20058;-72
2023/06/20 06:44:22;;;;;;;17.40;11.63;;;21.00;99.90;;;;;;5083928;27;20550;-72
2023/06/20 06:46:48;;;;;;;16.87;11.30;;;21.10;99.90;;;;;;5118494;27;20160;-72
2023/06/20 06:49:14;;;;;;;18.67;11.60;;;21.20;99.90;;;;;;5118274;27;20082;-74
2023/06/20 06:51:40;;;;;;;16.83;11.60;;;21.20;99.90;;;;;;5118392;27;20136;-73
2023/06/20 06:54:06;;;;;;;17.73;11.15;;;21.30;99.90;;;;;;5101668;27;20050;-73
2023/06/20 06:56:32;;;;;;;16.15;11.70;;;21.30;99.90;;;;;;5117671;27;20415;-72
2023/06/20 06:59:01;;;;;;;18.97;12.17;;;21.30;99.90;;;;;;5118280;27;20057;-72
2023/06/20 07:01:30;;;;;;;19.35;11.23;;;21.30;99.90;;;;;;5117861;27;20136;-73
2023/06/20 07:03:56;;;;;;;22.65;12.15;;;21.40;99.90;;;;;;5136723;27;20209;-72
2023/06/20 07:06:22;;;;;;;15.70;11.30;;;21.40;99.90;;;;;;5117582;27;20050;-72
2023/06/20 07:08:47;;;;;;;17.60;11.57;;;21.50;99.90;;;;;;5101463;27;20043;-72
2023/06/20 07:11:13;;;;;;;17.60;11.73;;;21.40;99.90;;;;;;5121221;27;20131;-72
2023/06/20 07:13:39;;;;;;;18.30;12.20;;;21.50;99.90;;;;;;5117731;27;20099;-72
2023/06/20 07:16:05;;;;;;;17.20;12.07;;;21.50;99.90;;;;;;5136257;27;20050;-72
2023/06/20 07:18:31;;;;;;;16.73;11.55;;;21.60;99.90;;;;;;5117540;27;20082;-73
2023/06/20 07:20:57;;;;;;;17.37;11.17;;;21.60;99.90;;;;;;5117849;27;20042;-73
2023/06/20 07:23:23;;;;;;;19.13;12.35;;;21.60;99.90;;;;;;5135693;27;20076;-76
2023/06/20 07:25:49;;;;;;;19.50;12.23;;;21.60;99.90;;;;;;5135857;27;20118;-72
2023/06/20 07:28:15;;;;;;;17.73;12.13;;;21.60;99.90;;;;;;5135329;27;20126;-72
2023/06/20 07:30:40;;;;;;;16.70;12.00;;;21.70;99.90;;;;;;5117557;27;20051;-73
2023/06/20 07:33:06;;;;;;;19.43;12.10;;;21.70;99.90;;;;;;5118080;27;20046;-72
2023/06/20 07:35:32;;;;;;;17.83;11.80;;;21.70;99.90;;;;;;5117435;27;20047;-71
2023/06/20 07:37:58;;;;;;;18.33;11.68;;;21.80;99.90;;;;;;5117558;27;20039;-73
2023/06/20 07:40:24;;;;;;;18.97;12.30;;;21.70;99.90;;;;;;5135292;27;20399;-75
2023/06/20 07:42:50;;;;;;;19.10;12.53;;;21.60;99.90;;;;;;5133918;27;20277;-74
2023/06/20 07:45:16;;;;;;;16.07;12.03;;;21.60;99.90;;;;;;5114810;27;20043;-74
2023/06/20 07:47:41;;;;;;;18.58;11.95;;;21.50;99.90;;;;;;5094852;28;20196;-73
2023/06/20 07:50:08;;;;;;;18.50;12.83;;;21.40;99.90;;;;;;5114627;28;20043;-71
2023/06/20 07:52:33;;;;;;;17.27;11.80;;;21.30;99.90;;;;;;5096647;28;20051;-72
2023/06/20 07:55:01;;;;;;;21.03;12.40;;;21.30;99.90;;;;;;5114169;28;20097;-72
2023/06/20 07:57:27;;;;;;;19.50;12.50;;;21.20;99.90;;;;;;5096191;28;20055;-74
2023/06/20 07:59:53;;;;;;;19.83;12.90;;;21.20;99.90;;;;;;5114804;28;20100;-74
2023/06/20 08:02:19;;;;;;;19.67;12.97;;;21.20;99.90;;;;;;5097203;27;20047;-73
2023/06/20 08:04:44;;;;;;;17.73;12.87;;;21.20;99.90;;;;;;5117056;27;20039;-73
2023/06/20 08:07:10;;;;;;;19.00;12.97;;;21.40;99.90;;;;;;5100238;27;20051;-74
2023/06/20 08:09:36;;;;;;;21.00;13.13;;;21.50;99.90;;;;;;5134536;27;20399;-72
2023/06/20 08:12:02;;;;;;;19.57;13.43;;;21.70;99.90;;;;;;5134876;27;20035;-73
2023/06/20 08:14:27;;;;;;;18.90;13.33;;;21.80;99.90;;;;;;5134913;27;20107;-73
2023/06/20 08:16:53;;;;;;;17.57;12.50;;;22.00;99.90;;;;;;5099712;27;20051;-71
2023/06/20 08:19:19;;;;;;;18.33;13.00;;;22.20;99.90;;;;;;5099541;27;20137;-75
2023/06/20 08:21:44;;;;;;;20.23;12.73;;;22.40;99.90;;;;;;5116618;27;20039;-72
2023/06/20 08:24:10;;;;;;;17.13;12.60;;;22.60;99.90;;;;;;5082865;27;20058;-73
2023/06/20 08:26:36;;;;;;;18.03;13.10;;;22.90;99.90;;;;;;5099063;27;20047;-72
2023/06/20 08:29:02;;;;;;;16.53;12.13;;;23.10;99.90;;;;;;5134918;27;20047;-74
2023/06/20 08:31:36;;;;;;;18.97;13.03;;;23.40;99.90;;;;;;5116206;27;20057;-73
2023/06/20 08:34:05;;;;;;;17.60;11.98;;;23.50;99.90;;;;;;5116470;27;20487;-72
2023/06/20 08:36:36;;;;;;;19.45;12.32;;;23.60;99.90;;;;;;5134155;27;20047;-74
2023/06/20 08:39:04;;;;;;;16.77;12.40;;;23.70;99.90;;;;;;5134902;27;20116;-72
2023/06/20 08:41:30;;;;;;;19.02;12.68;;;24.00;99.90;;;;;;5134557;27;20122;-73
2023/06/20 08:43:55;;;;;;;21.83;12.77;;;24.20;99.90;;;;;;5116149;27;20126;-73
2023/06/20 08:46:24;;;;;;;17.70;12.43;;;24.40;99.90;;;;;;5099395;27;20086;-74
2023/06/20 08:48:50;;;;;;;17.58;12.57;;;24.40;99.90;;;;;;5134472;27;20139;-73
2023/06/20 08:51:16;;;;;;;16.60;11.55;;;24.60;99.90;;;;;;5134687;27;20070;-74
2023/06/20 08:53:46;;;;;;;14.30;11.35;;;24.80;99.90;;;;;;5115594;27;20091;-73
2023/06/20 08:56:14;;;;;;;15.63;10.88;;;24.90;99.90;;;;;;5115450;27;20394;-74
2023/06/20 08:58:40;;;;;;;14.00;10.52;;;24.90;99.90;;;;;;5116032;27;20051;-74
2023/06/20 09:01:08;;;;;;;19.17;10.53;;;24.90;99.90;;;;;;5116471;27;20073;-73
2023/06/20 09:03:35;;;;;;;12.93;8.95;;;24.90;99.90;;;;;;5135342;27;20043;-74
2023/06/20 09:06:01;;;;;;;17.33;10.80;;;25.00;99.90;;;;;;5117494;27;20440;-73
2023/06/20 09:08:38;;;;;;;15.10;10.18;;;24.90;99.90;;;;;;5135378;27;20051;-73
2023/06/20 09:11:09;;;;;;;11.50;8.75;;;24.90;99.90;;;;;;5100623;27;20047;-73
2023/06/20 09:13:35;;;;;;;10.85;7.95;;;24.90;99.90;;;;;;5135760;27;20039;-73
2023/06/20 09:16:11;;;;;;;13.43;8.07;;;25.00;99.90;;;;;;5117456;27;20501;-73
2023/06/20 09:18:40;;;;;;;17.52;9.43;;;25.10;99.90;;;;;;5134847;27;20133;-73
2023/06/20 09:21:06;;;;;;;10.73;8.48;;;25.10;99.90;;;;;;5100008;28;20075;-73
2023/06/20 09:23:33;;;;;;;11.65;8.20;;;25.20;99.90;;;;;;5133809;27;20043;-74
2023/06/20 09:26:16;;;;;;;14.30;8.63;;;25.30;99.90;;;;;;5133831;27;20054;-73
2023/06/20 09:28:43;;;;;;;12.20;8.23;;;25.50;99.90;;;;;;5133130;27;20083;-72
2023/06/20 09:31:08;;;;;;;11.40;8.65;;;25.60;99.90;;;;;;5115705;27;20399;-73
2023/06/20 09:33:38;;;;;;;10.88;7.68;;;25.70;99.90;;;;;;5115051;28;20118;-74
2023/06/20 09:36:11;;;;;;;14.05;8.00;;;25.80;99.90;;;;;;5115706;28;20047;-75
2023/06/20 09:38:42;;;;;;;15.30;8.80;;;25.90;99.90;;;;;;5133206;28;20075;-74
2023/06/20 09:41:07;;;;;;;11.52;8.43;;;25.90;99.90;;;;;;5098674;28;20126;-74
2023/06/20 09:43:33;;;;;;;11.20;7.63;;;25.90;99.90;;;;;;5081837;28;20189;-73
2023/06/20 09:45:59;;;;;;;11.37;7.90;;;25.90;99.90;;;;;;5133318;28;20293;-73
2023/06/20 09:48:28;;;;;;;9.65;8.05;;;26.10;99.90;;;;;;5098754;28;20046;-74
2023/06/20 09:50:55;;;;;;;11.48;7.70;;;26.20;99.90;;;;;;5115370;28;20055;-73
2023/06/20 09:53:33;;;;;;;11.05;8.05;;;26.30;99.90;;;;;;5133453;28;20479;-73
2023/06/20 09:56:01;;;;;;;11.13;6.90;;;26.50;99.90;;;;;;5133545;28;20039;-72
2023/06/20 09:58:29;;;;;;;9.98;7.50;;;26.50;99.90;;;;;;5115162;28;20047;-72
2023/06/20 10:00:58;;;;;;;11.57;7.63;;;26.60;99.90;;;;;;5114688;28;20057;-73
2023/06/20 10:03:25;;;;;;;13.00;6.85;;;26.70;99.90;;;;;;5131663;28;20561;-71
2023/06/20 10:05:52;;;;;;;9.30;5.95;;;26.70;99.90;;;;;;5131525;28;20032;-72
2023/06/20 10:08:19;;;;;;;8.80;5.50;;;26.70;99.90;;;;;;5133116;28;20042;-73
2023/06/20 10:10:44;;;;;;;11.45;6.03;;;26.70;99.90;;;;;;5132974;28;20163;-75
2023/06/20 10:13:11;;;;;;;9.47;6.27;;;26.80;99.90;;;;;;5098303;28;20040;-76
2023/06/20 10:15:37;;;;;;;11.77;7.30;;;26.90;99.90;;;;;;5112383;28;20083;-73
2023/06/20 10:18:17;;;;;;;10.13;6.25;;;26.90;99.90;;;;;;5115369;28;20044;-73
2023/06/20 10:20:43;;;;;;;8.20;6.32;;;26.90;99.90;;;;;;5116304;28;20126;-73
2023/06/20 10:23:10;;;;;;;10.57;6.37;;;27.00;99.90;;;;;;5098183;28;20531;-73
2023/06/20 10:25:53;;;;;;;9.20;5.57;;;27.10;99.90;;;;;;5063999;28;20077;-71
2023/06/20 10:28:22;;;;;;;10.75;5.43;;;27.10;99.90;;;;;;5116663;28;20194;-73
2023/06/20 10:30:53;;;;;;;8.73;5.50;;;27.20;99.90;;;;;;5098015;28;20055;-73
2023/06/20 10:33:39;;;;;;;9.07;5.43;;;27.20;99.90;;;;;;5116264;28;20040;-73
2023/06/20 10:36:13;;;;;;;9.32;6.25;;;27.20;99.90;;;;;;5090368;27;20043;-72
2023/06/20 10:39:02;;;;;;;8.10;5.65;;;27.30;99.90;;;;;;5136339;27;20055;-73
2023/06/20 10:41:28;;;;;;;11.00;6.00;;;27.40;99.90;;;;;;5112059;28;20073;-74
2023/06/20 10:43:58;;;;;;;8.32;5.68;;;27.50;99.90;;;;;;5097389;28;20402;-74
2023/06/20 10:46:47;;;;;;;10.15;5.95;;;27.50;99.90;;;;;;5115564;28;20043;-74
2023/06/20 10:49:13;;;;;;;9.98;5.70;;;27.40;99.90;;;;;;5116097;28;20048;-73
2023/06/20 10:51:51;;;;;;;12.75;5.65;;;27.40;99.90;;;;;;5080305;28;20051;-73
2023/06/20 10:54:18;;;;;;;9.43;5.57;;;27.50;99.90;;;;;;5115019;27;20078;-74
2023/06/20 10:56:45;;;;;;;7.32;5.70;;;27.50;99.90;;;;;;5100466;27;20055;-74
2023/06/20 10:59:18;;;;;;;8.10;5.60;;;27.60;99.90;;;;;;5135833;27;20482;-74
2023/06/20 11:01:45;;;;;;;8.55;5.53;;;27.80;99.90;;;;;;5135848;27;20090;-71
2023/06/20 11:04:13;;;;;;;9.52;6.60;;;27.80;99.80;;;;;;5117828;27;20047;-73
2023/06/20 11:06:39;;;;;;;10.30;6.00;;;27.90;99.60;;;;;;5117806;27;20043;-74
2023/06/20 11:09:14;;;;;;;8.18;5.50;;;28.00;99.60;;;;;;5136176;27;20508;-72
2023/06/20 11:11:40;;;;;;;8.93;6.30;;;28.10;99.50;;;;;;5113356;28;20149;-78
2023/06/20 11:14:15;;;;;;;10.05;6.55;;;28.10;99.70;;;;;;5097440;28;20122;-72
2023/06/20 11:16:41;;;;;;;10.13;6.88;;;28.30;99.40;;;;;;5097657;28;20544;-74
2023/06/20 11:19:08;;;;;;;10.38;6.75;;;28.30;99.10;;;;;;5097132;28;20521;-74
2023/06/20 11:21:34;;;;;;;7.10;5.82;;;28.40;99.20;;;;;;5097404;28;20066;-72
2023/06/20 11:24:01;;;;;;;9.02;7.40;;;28.50;99.30;;;;;;5096744;28;20506;-74
2023/06/20 11:26:33;;;;;;;11.55;7.15;;;28.80;99.10;;;;;;5117653;27;20054;-74
2023/06/20 11:29:00;;;;;;;12.48;7.68;;;28.90;98.80;;;;;;5117015;27;20112;-73
2023/06/20 11:31:26;;;;;;;9.40;6.70;;;29.00;97.20;;;;;;5135930;27;20047;-74
2023/06/20 11:34:21;;;;;;;13.50;7.45;;;29.00;97.90;;;;;;5135392;27;20448;-74
2023/06/20 11:36:50;;;;;;;13.70;7.50;;;29.00;97.70;;;;;;5113343;27;20492;-74
2023/06/20 11:39:16;;;;;;;8.77;6.78;;;28.80;96.90;;;;;;5135792;27;20051;-74
2023/06/20 11:41:42;;;;;;;8.80;6.90;;;28.60;97.30;;;;;;5117272;27;20428;-72
2023/06/20 11:44:24;;;;;;;11.63;6.70;;;28.50;97.40;;;;;;5134669;27;20047;-73
2023/06/20 11:46:49;;;;;;;14.48;6.28;;;28.70;97.20;;;;;;5099713;27;20068;-74
2023/06/20 11:49:31;;;;;;;12.70;6.13;;;28.80;96.80;;;;;;5117257;27;20051;-74
2023/06/20 11:51:56;;;;;;;10.27;6.38;;;29.00;96.20;;;;;;5135105;27;20051;-74
2023/06/20 11:54:24;;;;;;;11.32;6.70;;;29.00;96.40;;;;;;5117360;27;20401;-73
2023/06/20 11:56:54;;;;;;;9.63;5.05;;;29.20;96.40;;;;;;5116582;27;20039;-72
2023/06/20 11:59:25;;;;;;;10.15;4.38;;;29.50;96.30;;;;;;5116927;27;20043;-74
2023/06/20 12:01:52;;;;;;;7.38;4.88;;;29.80;94.70;;;;;;5116281;27;20063;-74
2023/06/20 12:04:20;;;;;;;10.25;4.60;;;29.70;95.00;;;;;;5135215;27;20122;-73
2023/06/20 12:06:48;;;;;;;6.30;4.30;;;29.90;94.20;;;;;;5135079;27;20079;-72
2023/06/20 12:09:18;;;;;;;7.80;4.45;;;30.00;93.90;;;;;;5135132;27;20050;-72
2023/06/20 12:11:52;;;;;;;8.32;4.80;;;30.00;94.10;;;;;;5112022;28;20043;-72
2023/06/20 12:14:19;;;;;;;7.00;5.00;;;30.20;94.10;;;;;;5096033;28;20035;-72
2023/06/20 12:16:45;;;;;;;7.50;5.32;;;30.40;93.90;;;;;;5114544;28;20548;-74
2023/06/20 12:19:11;;;;;;;9.00;5.95;;;30.50;92.70;;;;;;5096119;27;20118;-71
2023/06/20 12:21:40;;;;;;;8.65;5.30;;;30.40;92.70;;;;;;5116735;27;20451;-73
2023/06/20 12:24:06;;;;;;;10.60;5.00;;;30.20;92.80;;;;;;5116016;27;20051;-73
2023/06/20 12:26:32;;;;;;;8.13;5.00;;;30.20;92.70;;;;;;5134701;27;20039;-71
2023/06/20 12:28:58;;;;;;;7.20;5.40;;;30.30;92.70;;;;;;5134343;27;20039;-74
2023/06/20 12:31:24;;;;;;;8.45;5.60;;;30.40;93.00;;;;;;5134621;27;20483;-73
2023/06/20 12:33:50;;;;;;;6.57;4.97;;;30.60;92.50;;;;;;5099510;27;20039;-74
2023/06/20 12:36:17;;;;;;;6.55;4.82;;;30.60;91.90;;;;;;5134274;27;20047;-73
2023/06/20 12:38:43;;;;;;;7.57;4.65;;;30.70;91.90;;;;;;5134245;27;20079;-73